createdAt,value
2022-10-05T00:02:39.583Z,10.08
2022-10-05T00:07:47.194Z,10.09
2022-10-05T00:12:53.567Z,10.06
2022-10-05T00:17:58.940Z,10.12
2022-10-05T00:23:11.875Z,10.34
2022-10-05T00:28:21.692Z,10.28
2022-10-05T00:33:26.813Z,10.46
2022-10-05T00:38:34.592Z,10.43
2022-10-05T00:44:00.609Z,10.40
2022-10-05T00:49:16.547Z,10.37
2022-10-05T00:54:35.028Z,10.41
2022-10-05T00:59:54.204Z,10.32
2022-10-05T01:05:04.310Z,10.15
2022-10-05T01:10:20.069Z,10.15
2022-10-05T01:15:32.799Z,10.08
2022-10-05T01:20:53.918Z,9.95
2022-10-05T01:26:19.473Z,9.71
2022-10-05T01:31:36.539Z,9.70
2022-10-05T01:36:48.724Z,9.61
2022-10-05T01:42:03.383Z,9.40
2022-10-05T01:47:16.494Z,9.42
2022-10-05T01:52:33.840Z,9.35
2022-10-05T01:57:53.358Z,9.48
2022-10-05T02:03:07.712Z,9.45
2022-10-05T02:08:18.313Z,9.22
2022-10-05T02:13:28.497Z,9.21
2022-10-05T02:18:43.553Z,9.34
2022-10-05T02:23:54.281Z,9.42
2022-10-05T02:29:08.350Z,9.45
2022-10-05T02:34:28.478Z,9.29
2022-10-05T02:40:00.897Z,9.26
2022-10-05T02:45:18.087Z,9.22
2022-10-05T02:50:37.042Z,9.20
2022-10-05T02:55:49.682Z,9.06
2022-10-05T03:01:02.202Z,9.10
2022-10-05T03:06:16.055Z,9.11
2022-10-05T03:11:28.378Z,9.13
2022-10-05T03:16:44.640Z,9.01
2022-10-05T03:21:59.607Z,8.93
2022-10-05T03:27:16.387Z,8.91
2022-10-05T03:32:31.021Z,8.98
2022-10-05T03:37:48.855Z,8.95
2022-10-05T03:43:04.511Z,9.01
2022-10-05T03:48:14.469Z,8.92
2022-10-05T03:53:25.123Z,8.90
2022-10-05T03:58:37.690Z,8.94
2022-10-05T04:03:46.777Z,8.88
2022-10-05T04:09:02.033Z,8.90
2022-10-05T04:14:13.985Z,8.99
2022-10-05T04:19:24.915Z,9.01
2022-10-05T04:24:37.988Z,8.95
2022-10-05T04:29:47.828Z,8.88
2022-10-05T04:35:11.015Z,8.80
2022-10-05T04:40:32.741Z,8.85
2022-10-05T04:45:51.878Z,8.89
2022-10-05T04:51:13.338Z,9.03
2022-10-05T04:56:26.947Z,8.81
2022-10-05T05:01:49.185Z,8.88
2022-10-05T05:07:06.630Z,8.98
2022-10-05T05:12:29.572Z,9.21
2022-10-05T05:17:54.871Z,9.08
2022-10-05T05:23:10.172Z,8.97
2022-10-05T05:28:31.060Z,8.79
2022-10-05T05:33:48.736Z,8.77
2022-10-05T05:39:18.567Z,8.66
2022-10-05T05:44:29.432Z,8.76
2022-10-05T05:49:47.397Z,8.92
2022-10-05T05:54:57.784Z,9.04
2022-10-05T06:00:11.012Z,9.31
2022-10-05T06:05:31.012Z,9.25
2022-10-05T06:10:43.890Z,9.48
2022-10-05T06:15:57.045Z,9.51
2022-10-05T06:21:05.968Z,9.56
2022-10-05T06:26:35.399Z,9.62
2022-10-05T06:32:06.019Z,10.08
2022-10-05T06:37:23.804Z,14.03
2022-10-05T06:43:01.703Z,15.21
2022-10-05T06:48:22.993Z,16.76
2022-10-05T06:53:50.377Z,16.86
2022-10-05T06:59:02.859Z,14.96
2022-10-05T07:04:37.079Z,17.18
2022-10-05T07:09:56.804Z,17.58
2022-10-05T07:15:28.136Z,18.03
2022-10-05T07:20:49.249Z,18.00
2022-10-05T07:26:07.952Z,18.40
2022-10-05T07:31:24.732Z,18.16
2022-10-05T07:36:54.992Z,18.81
2022-10-05T07:42:19.456Z,19.48
2022-10-05T07:47:37.791Z,17.90
2022-10-05T07:52:55.058Z,18.57
2022-10-05T07:58:11.667Z,19.27
2022-10-05T08:03:27.325Z,18.01
2022-10-05T08:08:48.270Z,16.21
2022-10-05T08:13:59.927Z,17.02
2022-10-05T08:19:19.831Z,17.76
2022-10-05T08:24:45.639Z,17.86
2022-10-05T08:29:59.047Z,17.72
2022-10-05T08:35:16.830Z,18.54
2022-10-05T08:40:57.266Z,17.51
2022-10-05T08:46:34.480Z,17.46
2022-10-05T08:51:57.572Z,17.94
2022-10-05T08:57:31.484Z,17.85
2022-10-05T09:02:53.539Z,17.31
2022-10-05T09:08:32.728Z,17.21
2022-10-05T09:14:04.778Z,17.61
2022-10-05T09:19:41.105Z,17.57
2022-10-05T09:24:59.638Z,17.58
2022-10-05T09:30:25.583Z,17.10
2022-10-05T09:35:53.708Z,16.85
2022-10-05T09:41:33.061Z,17.65
2022-10-05T09:47:00.340Z,18.16
2022-10-05T09:52:25.825Z,18.40
2022-10-05T09:57:56.517Z,18.43
2022-10-05T10:03:32.571Z,18.87
2022-10-05T10:08:48.580Z,19.36
2022-10-05T10:14:18.246Z,18.98
2022-10-05T10:20:04.283Z,19.25
2022-10-05T10:25:37.165Z,18.34
2022-10-05T10:31:20.298Z,19.20
2022-10-05T10:36:50.798Z,20.28
2022-10-05T10:42:28.901Z,20.87
2022-10-05T10:47:54.684Z,20.55
2022-10-05T10:53:20.685Z,20.61
2022-10-05T10:58:55.143Z,20.09
2022-10-05T11:04:16.051Z,21.64
2022-10-05T11:09:54.407Z,20.78
2022-10-05T11:15:21.424Z,21.13
2022-10-05T11:20:59.950Z,20.37
2022-10-05T11:26:29.667Z,20.27
2022-10-05T11:32:12.990Z,20.92
2022-10-05T11:37:49.745Z,20.22
2022-10-05T11:43:20.202Z,20.41
2022-10-05T11:48:49.929Z,20.86
2022-10-05T11:54:07.242Z,20.83
2022-10-05T11:59:22.649Z,20.80
2022-10-05T12:04:37.675Z,20.18
2022-10-05T12:10:20.360Z,20.02
2022-10-05T12:15:33.318Z,19.77
2022-10-05T12:20:48.923Z,19.34
2022-10-05T12:26:09.456Z,19.16
2022-10-05T12:31:34.386Z,19.24
2022-10-05T12:37:03.637Z,19.27
2022-10-05T12:42:23.107Z,19.03
2022-10-05T12:47:41.013Z,19.00
2022-10-05T12:53:00.955Z,19.13
2022-10-05T12:58:27.185Z,19.42
2022-10-05T13:03:40.030Z,19.34
2022-10-05T13:08:53.216Z,19.53
2022-10-05T13:14:10.035Z,19.17
2022-10-05T13:19:39.264Z,19.13
2022-10-05T13:24:59.607Z,18.88
2022-10-05T13:30:10.649Z,18.63
2022-10-05T13:35:46.546Z,18.95
2022-10-05T13:40:58.388Z,18.76
2022-10-05T13:46:15.325Z,19.04
2022-10-05T13:51:27.532Z,19.28
2022-10-05T13:56:34.914Z,18.94
2022-10-05T14:01:45.984Z,19.32
2022-10-05T14:06:57.762Z,19.11
2022-10-05T14:12:23.716Z,19.19
2022-10-05T14:17:51.523Z,19.59
2022-10-05T14:23:02.940Z,19.66
2022-10-05T14:28:28.545Z,19.58
2022-10-05T14:33:35.462Z,19.64
2022-10-05T14:38:55.873Z,19.72
2022-10-05T14:44:06.893Z,19.47
2022-10-05T14:49:22.292Z,19.27
2022-10-05T14:54:49.519Z,19.37
2022-10-05T15:00:05.307Z,19.20
2022-10-05T15:05:18.696Z,18.92
2022-10-05T15:10:36.597Z,18.79
2022-10-05T15:15:47.652Z,18.84
2022-10-05T15:20:59.982Z,18.56
2022-10-05T15:26:30.140Z,18.50
2022-10-05T15:31:42.089Z,18.35
2022-10-05T15:36:52.651Z,18.29
2022-10-05T15:42:04.743Z,18.10
2022-10-05T15:47:18.052Z,17.83
2022-10-05T15:52:29.741Z,17.89
2022-10-05T15:57:46.681Z,17.83
2022-10-05T16:02:58.317Z,17.69
2022-10-05T16:08:18.499Z,17.55
2022-10-05T16:13:37.297Z,17.16
2022-10-05T16:18:59.805Z,17.19
2022-10-05T16:24:21.775Z,17.13
2022-10-05T16:29:38.434Z,16.88
2022-10-05T16:34:59.166Z,16.81
2022-10-05T16:40:19.308Z,16.83
2022-10-05T16:45:45.369Z,16.80
2022-10-05T16:51:05.033Z,16.70
2022-10-05T16:56:14.632Z,16.55
2022-10-05T17:01:33.167Z,16.37
2022-10-05T17:06:58.180Z,16.37
2022-10-05T17:12:17.984Z,16.29
2022-10-05T17:17:41.406Z,16.20
2022-10-05T17:22:55.100Z,16.07
2022-10-05T17:28:18.894Z,15.97
2022-10-05T17:33:29.383Z,16.01
2022-10-05T17:38:49.783Z,15.87
2022-10-05T17:44:30.857Z,15.74
2022-10-05T17:50:10.933Z,15.64
2022-10-05T17:55:30.224Z,15.65
2022-10-05T18:00:43.773Z,15.65
2022-10-05T18:06:28.479Z,15.50
2022-10-05T18:11:43.381Z,15.35
2022-10-05T18:17:01.912Z,15.00
2022-10-05T18:22:30.498Z,15.30
2022-10-05T18:27:54.733Z,15.07
2022-10-05T18:33:34.192Z,15.23
2022-10-05T18:39:06.017Z,15.22
2022-10-05T18:44:29.193Z,15.23
2022-10-05T18:49:54.656Z,15.17
2022-10-05T18:55:18.411Z,15.19
2022-10-05T19:00:27.399Z,15.18
2022-10-05T19:05:48.467Z,15.08
2022-10-05T19:11:00.882Z,15.08
2022-10-05T19:16:22.733Z,15.19
2022-10-05T19:21:34.726Z,15.17
2022-10-05T19:26:54.191Z,14.99
2022-10-05T19:32:06.286Z,15.07
2022-10-05T19:37:17.030Z,15.31
2022-10-05T19:42:47.400Z,15.06
2022-10-05T19:48:07.488Z,15.08
2022-10-05T19:53:17.275Z,15.37
2022-10-05T19:58:27.152Z,15.32
2022-10-05T20:03:36.896Z,15.39
2022-10-05T20:08:45.122Z,15.23
2022-10-05T20:14:23.277Z,15.21
2022-10-05T20:19:50.461Z,15.38
2022-10-05T20:24:56.942Z,15.38
2022-10-05T20:30:04.898Z,15.55
2022-10-05T20:35:11.172Z,15.65
2022-10-05T20:40:17.831Z,15.62
2022-10-05T20:45:25.717Z,15.53
2022-10-05T20:50:32.854Z,15.85
2022-10-05T20:55:37.756Z,16.13
2022-10-05T21:00:57.657Z,16.06
2022-10-05T21:06:02.545Z,15.93
2022-10-05T21:11:09.191Z,16.09
2022-10-05T21:16:18.360Z,15.86
2022-10-05T21:21:27.402Z,15.93
2022-10-05T21:26:32.252Z,16.20
2022-10-05T21:31:40.677Z,16.20
2022-10-05T21:36:48.255Z,16.27
2022-10-05T21:41:53.239Z,16.32
2022-10-05T21:47:01.784Z,16.32
2022-10-05T21:52:07.838Z,16.21
2022-10-05T21:57:15.454Z,15.80
2022-10-05T22:02:22.956Z,15.41
2022-10-05T22:07:29.096Z,15.30
2022-10-05T22:12:34.962Z,14.85
2022-10-05T22:17:43.792Z,14.69
2022-10-05T22:22:48.672Z,14.46
2022-10-05T22:27:53.753Z,14.38
2022-10-05T22:33:01.167Z,14.35
2022-10-05T22:38:06.970Z,14.04
2022-10-05T22:43:12.079Z,14.00
2022-10-05T22:48:19.463Z,13.96
2022-10-05T22:53:25.532Z,13.88
2022-10-05T22:58:30.823Z,13.70
2022-10-05T23:03:38.987Z,13.44
2022-10-05T23:08:44.924Z,13.27
2022-10-05T23:13:50.606Z,13.30
2022-10-05T23:18:59.272Z,13.27
2022-10-05T23:24:04.640Z,13.19
2022-10-05T23:29:10.118Z,13.00
2022-10-05T23:34:18.031Z,13.81
2022-10-05T23:39:22.836Z,14.12
2022-10-05T23:44:27.749Z,14.89
2022-10-05T23:49:35.154Z,15.78
2022-10-05T23:54:39.991Z,15.99
2022-10-05T23:59:45.017Z,16.17
